Time,TemperatureF,DewpointF,PressureIn,WindDirection,WindDirectionDegrees,WindSpeedMPH,WindSpeedGustMPH,Humidity,HourlyPrecipIn,Conditions,Clouds,dailyrainin,SoftwareType,DateUTC
2013-04-25 00:01:00,40.3,34.6,29.98,WNW,290,10.4,10.4,80,0.00,RA,,0.00,WeatherDisplay:10.37,2013-04-25 04:01:00,
2013-04-25 00:02:00,40.3,34.6,29.98,WSW,252,15.0,15.0,80,0.00,RA,,0.00,WeatherDisplay:10.37,2013-04-25 04:02:00,
2013-04-25 00:07:00,40.3,34.6,29.99,WNW,297,5.0,5.0,80,0.00,RA,,0.00,WeatherDisplay:10.37,2013-04-25 04:07:00,
2013-04-25 00:12:00,40.3,34.0,29.99,WNW,294,10.4,10.4,78,0.00,,,0.00,WeatherDisplay:10.37,2013-04-25 04:12:00,
2013-04-25 00:17:00,40.3,34.3,30.00,West,278,5.8,5.8,79,0.00,,,0.00,WeatherDisplay:10.37,2013-04-25 04:17:00,
2013-04-25 00:22:00,40.3,34.9,30.00,WNW,283,2.3,2.3,81,0.00,,,0.00,WeatherDisplay:10.37,2013-04-25 04:22:00,
2013-04-25 00:27:00,40.3,35.2,30.01,West,277,7.0,7.0,82,0.00,,,0.00,WeatherDisplay:10.37,2013-04-25 04:27:00,
2013-04-25 00:32:00,40.3,34.9,30.01,West,274,12.7,12.7,81,0.00,,,0.00,WeatherDisplay:10.37,2013-04-25 04:32:00,
2013-04-25 00:37:00,40.3,34.9,30.02,West,274,5.8,5.8,81,0.00,,,0.00,WeatherDisplay:10.37,2013-04-25 04:37:00,
2013-04-25 00:42:00,40.3,34.9,30.02,West,260,6.9,6.9,81,0.00,,,0.00,WeatherDisplay:10.37,2013-04-25 04:42:00,
2013-04-25 00:47:00,40.3,35.2,30.02,WNW,283,13.8,13.8,82,0.00,,,0.00,WeatherDisplay:10.37,2013-04-25 04:47:00,
2013-04-25 00:52:00,40.2,35.1,30.03,WSW,243,5.8,5.8,82,0.00,,,0.00,WeatherDisplay:10.37,2013-04-25 04:52:00,
2013-04-25 00:57:00,40.2,35.4,30.03,NW,318,2.3,2.3,83,0.00,,,0.00,WeatherDisplay:10.37,2013-04-25 04:57:00,
2013-04-25 01:02:00,40.0,35.6,30.03,NE,40,2.3,2.3,84,0.00,CLR,,0.00,WeatherDisplay:10.37,2013-04-25 05:02:00,
2013-04-25 01:07:00,39.8,35.4,30.03,West,277,3.5,3.5,84,0.00,CLR,,0.00,WeatherDisplay:10.37,2013-04-25 05:07:00,
2013-04-25 01:12:00,39.8,35.7,30.04,SW,232,0.0,0.3,85,0.00,CLR,,0.00,WeatherDisplay:10.37,2013-04-25 05:12:00,
2013-04-25 01:17:00,39.7,35.6,30.04,SSW,212,3.5,3.5,85,0.00,CLR,,0.00,WeatherDisplay:10.37,2013-04-25 05:17:00,
2013-04-25 01:22:00,39.5,35.4,30.04,West,266,5.8,5.8,85,0.00,CLR,,0.00,WeatherDisplay:10.37,2013-04-25 05:22:00,
2013-04-25 01:27:00,39.4,35.3,30.04,WNW,297,6.9,6.9,85,0.00,CLR,,0.00,WeatherDisplay:10.37,2013-04-25 05:27:00,
2013-04-25 01:32:00,39.3,35.2,30.05,NNW,341,3.5,3.5,85,0.00,CLR,,0.00,WeatherDisplay:10.37,2013-04-25 05:32:00,
2013-04-25 01:37:00,39.2,35.1,30.05,WSW,252,2.3,2.3,85,0.00,CLR,,0.00,WeatherDisplay:10.37,2013-04-25 05:37:00,
2013-04-25 01:42:00,39.1,35.0,30.05,WSW,252,5.8,5.8,85,0.00,CLR,,0.00,WeatherDisplay:10.37,2013-04-25 05:42:00,
2013-04-25 01:48:00,39.0,34.9,30.06,WSW,257,9.0,9.0,85,0.00,CLR,,0.00,WeatherDisplay:10.37,2013-04-25 05:48:00,
2013-04-25 01:53:00,39.0,34.9,30.06,North,11,3.5,3.5,85,0.00,CLR,,0.00,WeatherDisplay:10.37,2013-04-25 05:53:00,
2013-04-25 01:58:00,39.0,34.9,30.06,WNW,297,5.8,5.8,85,0.00,CLR,,0.00,WeatherDisplay:10.37,2013-04-25 05:58:00,
2013-04-25 02:03:00,39.0,34.6,30.06,SW,233,3.5,3.5,84,0.00,CLR,,0.00,WeatherDisplay:10.37,2013-04-25 06:03:00,
2013-04-25 02:08:00,39.0,34.6,30.06,WSW,258,3.5,3.5,84,0.00,CLR,,0.00,WeatherDisplay:10.37,2013-04-25 06:08:00,
2013-04-25 02:13:00,38.9,34.5,30.06,West,262,3.5,3.5,84,0.00,CLR,,0.00,WeatherDisplay:10.37,2013-04-25 06:13:00,
2013-04-25 02:18:00,38.9,34.2,30.07,West,277,5.8,5.8,83,0.00,CLR,,0.00,WeatherDisplay:10.37,2013-04-25 06:18:00,
2013-04-25 02:23:00,38.9,34.5,30.07,WNW,300,5.8,5.8,84,0.00,CLR,,0.00,WeatherDisplay:10.37,2013-04-25 06:23:00,
2013-04-25 02:28:00,38.8,34.4,30.07,WSW,249,3.5,3.5,84,0.00,CLR,,0.00,WeatherDisplay:10.37,2013-04-25 06:28:00,
2013-04-25 02:33:00,38.7,34.3,30.07,North,352,3.0,3.0,84,0.00,CLR,,0.00,WeatherDisplay:10.37,2013-04-25 06:33:00,
2013-04-25 02:38:00,38.7,34.0,30.07,NW,318,3.5,3.5,83,0.00,CLR,,0.00,WeatherDisplay:10.37,2013-04-25 06:38:00,
2013-04-25 02:43:00,38.7,33.7,30.07,NW,323,5.8,5.8,82,0.00,CLR,,0.00,WeatherDisplay:10.37,2013-04-25 06:43:00,
2013-04-25 02:48:00,38.7,33.1,30.07,NNE,22,8.1,8.1,80,0.00,CLR,,0.00,WeatherDisplay:10.37,2013-04-25 06:48:00,
2013-04-25 02:53:00,38.8,33.2,30.07,WSW,245,8.1,8.1,80,0.00,CLR,,0.00,WeatherDisplay:10.37,2013-04-25 06:53:00,
2013-04-25 02:58:00,38.8,32.5,30.07,WNW,297,4.6,5.2,78,0.00,CLR,,0.00,WeatherDisplay:10.37,2013-04-25 06:58:00,
2013-04-25 03:03:00,38.8,32.5,30.07,NW,311,4.6,4.6,78,0.00,CLR,,0.00,WeatherDisplay:10.37,2013-04-25 07:03:00,
2013-04-25 03:08:00,38.8,32.8,30.07,North,354,3.5,3.5,79,0.00,CLR,,0.00,WeatherDisplay:10.37,2013-04-25 07:08:00,
2013-04-25 03:13:00,38.7,32.4,30.07,North,5,3.5,3.5,78,0.00,CLR,,0.00,WeatherDisplay:10.37,2013-04-25 07:13:00,
2013-04-25 03:18:00,38.7,32.4,30.07,West,267,9.2,9.2,78,0.00,CLR,,0.00,WeatherDisplay:10.37,2013-04-25 07:18:00,
2013-04-25 03:23:00,38.7,32.1,30.07,North,349,8.0,8.0,77,0.00,CLR,,0.00,WeatherDisplay:10.37,2013-04-25 07:23:00,
2013-04-25 03:28:00,38.7,32.7,30.07,NNE,26,4.0,4.0,79,0.00,CLR,,0.00,WeatherDisplay:10.37,2013-04-25 07:28:00,
2013-04-25 03:33:00,38.6,32.6,30.07,WNW,299,3.5,3.5,79,0.00,CLR,,0.00,WeatherDisplay:10.37,2013-04-25 07:33:00,
2013-04-25 03:38:00,38.5,32.2,30.08,West,267,8.1,8.1,78,0.00,CLR,,0.00,WeatherDisplay:10.37,2013-04-25 07:38:00,
2013-04-25 03:43:00,38.5,32.6,30.08,WSW,249,4.0,4.0,79,0.00,CLR,,0.00,WeatherDisplay:10.37,2013-04-25 07:43:00,
2013-04-25 03:48:00,38.4,32.5,30.09,WNW,284,8.1,8.1,79,0.00,CLR,,0.00,WeatherDisplay:10.37,2013-04-25 07:48:00,
2013-04-25 03:53:00,38.4,32.5,30.09,West,274,3.5,3.5,79,0.00,CLR,,0.00,WeatherDisplay:10.37,2013-04-25 07:53:00,
2013-04-25 03:58:00,38.3,32.7,30.09,WNW,285,4.6,4.6,80,0.00,CLR,,0.00,WeatherDisplay:10.37,2013-04-25 07:58:00,
2013-04-25 04:03:00,38.2,32.3,30.09,SW,233,4.0,4.0,79,0.00,CLR,,0.00,WeatherDisplay:10.37,2013-04-25 08:03:00,
2013-04-25 04:08:00,38.1,32.5,30.09,WSW,257,2.3,2.3,80,0.00,CLR,,0.00,WeatherDisplay:10.37,2013-04-25 08:08:00,
2013-04-25 04:13:00,37.9,32.0,30.10,West,276,8.1,8.1,79,0.00,CLR,,0.00,WeatherDisplay:10.37,2013-04-25 08:13:00,
2013-04-25 04:18:00,37.7,32.1,30.10,East,84,1.1,1.1,80,0.00,CLR,,0.00,WeatherDisplay:10.37,2013-04-25 08:18:00,
2013-04-25 04:23:00,37.5,31.9,30.10,West,259,8.1,8.1,80,0.00,CLR,,0.00,WeatherDisplay:10.37,2013-04-25 08:23:00,
2013-04-25 04:28:00,37.4,32.1,30.10,WNW,299,1.1,0.0,81,0.00,CLR,,0.00,WeatherDisplay:10.37,2013-04-25 08:28:00,
2013-04-25 04:33:00,37.1,31.8,30.10,WSW,240,4.6,4.6,81,0.00,CLR,,0.00,WeatherDisplay:10.37,2013-04-25 08:33:00,
2013-04-25 04:38:00,37.2,32.2,30.11,West,270,2.3,2.3,82,0.00,CLR,,0.00,WeatherDisplay:10.37,2013-04-25 08:38:00,
2013-04-25 04:43:00,37.3,32.3,30.12,West,263,0.0,0.0,82,0.00,CLR,,0.00,WeatherDisplay:10.37,2013-04-25 08:43:00,
2013-04-25 04:48:00,37.4,32.4,30.12,NW,322,4.0,4.0,82,0.00,CLR,,0.00,WeatherDisplay:10.37,2013-04-25 08:48:00,
2013-04-25 04:53:00,37.5,32.5,30.12,ESE,108,3.5,3.5,82,0.00,CLR,,0.00,WeatherDisplay:10.37,2013-04-25 08:53:00,
2013-04-25 04:58:00,37.6,32.6,30.13,SW,231,1.1,0.0,82,0.00,CLR,,0.00,WeatherDisplay:10.37,2013-04-25 08:58:00,
2013-04-25 05:03:00,37.6,32.3,30.13,West,281,1.1,1.1,81,0.00,CLR,,0.00,WeatherDisplay:10.37,2013-04-25 09:03:00,
2013-04-25 05:08:00,37.7,32.7,30.13,SSE,163,0.0,0.0,82,0.00,CLR,,0.00,WeatherDisplay:10.37,2013-04-25 09:08:00,
2013-04-25 05:13:00,37.7,32.4,30.13,West,259,3.5,3.5,81,0.00,CLR,,0.00,WeatherDisplay:10.37,2013-04-25 09:13:00,
2013-04-25 05:18:00,37.7,32.4,30.14,West,275,1.1,1.1,81,0.00,CLR,,0.00,WeatherDisplay:10.37,2013-04-25 09:18:00,
2013-04-25 05:23:00,37.7,32.4,30.14,SW,235,0.0,0.0,81,0.00,CLR,,0.00,WeatherDisplay:10.37,2013-04-25 09:23:00,
2013-04-25 05:28:00,37.6,32.3,30.13,West,274,2.3,2.3,81,0.00,CLR,,0.00,WeatherDisplay:10.37,2013-04-25 09:28:00,
2013-04-25 05:33:00,37.4,31.8,30.14,West,280,3.5,3.5,80,0.00,CLR,,0.00,WeatherDisplay:10.37,2013-04-25 09:33:00,
2013-04-25 05:38:00,37.2,31.9,30.13,West,275,3.5,3.5,81,0.00,CLR,,0.00,WeatherDisplay:10.37,2013-04-25 09:38:00,
2013-04-25 05:43:00,37.1,31.5,30.13,WNW,287,3.5,3.5,80,0.00,CLR,,0.00,WeatherDisplay:10.37,2013-04-25 09:43:00,
2013-04-25 05:48:00,37.0,31.7,30.14,West,280,2.3,2.3,81,0.00,CLR,,0.00,WeatherDisplay:10.37,2013-04-25 09:48:00,
2013-04-25 05:53:00,36.8,31.5,30.14,WNW,283,4.6,4.6,81,0.00,CLR,,0.00,WeatherDisplay:10.37,2013-04-25 09:53:00,
2013-04-25 05:58:00,36.6,31.6,30.15,West,259,2.3,2.3,82,0.00,CLR,,0.00,WeatherDisplay:10.37,2013-04-25 09:58:00,
2013-04-25 06:03:00,36.4,31.4,30.15,SSE,153,2.3,2.3,82,0.00,CLR,,0.00,WeatherDisplay:10.37,2013-04-25 10:03:00,
2013-04-25 06:08:00,36.3,31.6,30.15,East,100,1.1,1.1,83,0.00,CLR,,0.00,WeatherDisplay:10.37,2013-04-25 10:08:00,
2013-04-25 06:13:00,36.3,31.9,30.16,West,263,1.1,0.0,84,0.00,CLR,,0.00,WeatherDisplay:10.37,2013-04-25 10:13:00,
2013-04-25 06:18:00,36.2,31.8,30.16,SW,235,2.3,2.3,84,0.00,CLR,,0.00,WeatherDisplay:10.37,2013-04-25 10:18:00,
2013-04-25 06:23:00,36.2,32.1,30.17,ESE,108,0.0,0.0,85,0.00,CLR,,0.00,WeatherDisplay:10.37,2013-04-25 10:23:00,
2013-04-25 06:28:00,36.1,32.0,30.17,WNW,282,2.3,2.3,85,0.00,CLR,,0.00,WeatherDisplay:10.37,2013-04-25 10:28:00,
2013-04-25 06:33:00,36.0,31.9,30.17,WNW,282,0.0,0.0,85,0.00,CLR,,0.00,WeatherDisplay:10.37,2013-04-25 10:33:00,
2013-04-25 06:38:00,35.8,32.0,30.18,ESE,114,1.1,0.0,86,0.00,CLR,,0.00,WeatherDisplay:10.37,2013-04-25 10:38:00,
2013-04-25 06:43:00,35.7,31.9,30.17,South,172,0.0,0.0,86,0.00,CLR,,0.00,WeatherDisplay:10.37,2013-04-25 10:43:00,
2013-04-25 06:48:00,35.5,31.7,30.18,NE,49,1.0,1.0,86,0.00,CLR,,0.00,WeatherDisplay:10.37,2013-04-25 10:48:00,
2013-04-25 06:53:00,35.5,32.0,30.18,South,186,2.0,2.0,87,0.00,CLR,,0.00,WeatherDisplay:10.37,2013-04-25 10:53:00,
2013-04-25 06:58:00,35.7,32.2,30.18,West,281,2.3,2.3,87,0.00,CLR,,0.00,WeatherDisplay:10.37,2013-04-25 10:58:00,
2013-04-25 07:03:00,36.0,32.5,30.19,WNW,302,1.1,1.1,87,0.00,CLR,,0.00,WeatherDisplay:10.37,2013-04-25 11:03:00,
2013-04-25 07:08:00,36.4,32.6,30.19,NW,304,2.3,0.0,86,0.00,CLR,,0.00,WeatherDisplay:10.37,2013-04-25 11:08:00,
2013-04-25 07:13:00,36.7,32.6,30.19,East,83,0.0,0.0,85,0.00,CLR,,0.00,WeatherDisplay:10.37,2013-04-25 11:13:00,
2013-04-25 07:18:00,37.1,33.0,30.19,West,277,2.3,2.3,85,0.00,CLR,,0.00,WeatherDisplay:10.37,2013-04-25 11:18:00,
2013-04-25 07:23:00,37.4,33.3,30.19,West,267,3.5,3.5,85,0.00,CLR,,0.00,WeatherDisplay:10.37,2013-04-25 11:23:00,
2013-04-25 07:28:00,37.9,33.8,30.20,WNW,288,2.3,2.3,85,0.00,CLR,,0.00,WeatherDisplay:10.37,2013-04-25 11:28:00,
2013-04-25 07:33:00,38.4,34.0,30.20,WNW,297,2.0,2.0,84,0.00,CLR,,0.00,WeatherDisplay:10.37,2013-04-25 11:33:00,
2013-04-25 07:38:00,38.8,34.4,30.20,WSW,251,1.1,1.1,84,0.00,CLR,,0.00,WeatherDisplay:10.37,2013-04-25 11:38:00,
2013-04-25 07:43:00,39.4,34.7,30.20,WSW,257,3.5,3.5,83,0.00,CLR,,0.00,WeatherDisplay:10.37,2013-04-25 11:43:00,
2013-04-25 07:48:00,39.7,34.7,30.21,SW,236,2.3,2.3,82,0.00,CLR,,0.00,WeatherDisplay:10.37,2013-04-25 11:48:00,
2013-04-25 07:53:00,40.2,35.1,30.21,NW,306,3.5,3.5,82,0.00,CLR,,0.00,WeatherDisplay:10.37,2013-04-25 11:53:00,
2013-04-25 07:58:00,40.6,35.2,30.21,North,352,4.6,4.6,81,0.00,CLR,,0.00,WeatherDisplay:10.37,2013-04-25 11:58:00,
2013-04-25 08:03:00,41.0,35.3,30.22,WNW,295,3.5,3.5,80,0.00,CLR,,0.00,WeatherDisplay:10.37,2013-04-25 12:03:00,
2013-04-25 08:08:00,41.3,35.3,30.22,WNW,300,9.2,9.2,79,0.00,CLR,,0.00,WeatherDisplay:10.37,2013-04-25 12:08:00,
2013-04-25 08:13:00,41.6,35.6,30.22,NNW,330,4.6,4.6,79,0.00,CLR,,0.00,WeatherDisplay:10.37,2013-04-25 12:13:00,
2013-04-25 08:18:00,41.9,35.5,30.22,WNW,289,7.0,7.0,78,0.00,CLR,,0.00,WeatherDisplay:10.37,2013-04-25 12:18:00,
2013-04-25 08:23:00,42.1,35.7,30.22,West,281,3.5,3.5,78,0.00,CLR,,0.00,WeatherDisplay:10.37,2013-04-25 12:23:00,
2013-04-25 08:28:00,42.1,35.4,30.22,NNE,33,4.6,4.6,77,0.00,CLR,,0.00,WeatherDisplay:10.37,2013-04-25 12:28:00,
2013-04-25 08:33:00,42.4,35.4,30.21,West,263,8.1,8.1,76,0.00,CLR,,0.00,WeatherDisplay:10.37,2013-04-25 12:33:00,
2013-04-25 08:38:00,42.6,35.6,30.21,WSW,257,4.6,4.6,76,0.00,CLR,,0.00,WeatherDisplay:10.37,2013-04-25 12:38:00,
2013-04-25 08:43:00,42.7,35.0,30.21,West,278,4.0,4.0,74,0.00,CLR,,0.00,WeatherDisplay:10.37,2013-04-25 12:43:00,
2013-04-25 08:48:00,43.1,35.0,30.21,ENE,61,9.2,9.2,73,0.00,CLR,,0.00,WeatherDisplay:10.37,2013-04-25 12:48:00,
2013-04-25 08:53:00,43.5,34.4,30.21,West,280,8.1,8.1,70,0.00,CLR,,0.00,WeatherDisplay:10.37,2013-04-25 12:53:00,
2013-04-25 08:59:00,43.6,34.5,30.21,SW,219,5.8,5.8,70,0.00,CLR,,0.00,WeatherDisplay:10.37,2013-04-25 12:59:00,
2013-04-25 09:04:00,43.9,34.7,30.21,NE,47,3.5,3.5,70,0.00,CLR,,0.00,WeatherDisplay:10.37,2013-04-25 13:04:00,
2013-04-25 09:09:00,44.1,34.9,30.21,WNW,297,3.5,3.5,70,0.00,CLR,,0.00,WeatherDisplay:10.37,2013-04-25 13:09:00,
2013-04-25 09:14:00,44.0,34.1,30.22,WSW,238,9.2,9.2,68,0.00,CLR,,0.00,WeatherDisplay:10.37,2013-04-25 13:14:00,
2013-04-25 09:19:00,43.7,33.8,30.22,North,353,4.6,4.6,68,0.00,CLR,,0.00,WeatherDisplay:10.37,2013-04-25 13:19:00,
2013-04-25 09:24:00,44.3,33.3,30.22,NW,311,4.6,4.6,65,0.00,CLR,,0.00,WeatherDisplay:10.37,2013-04-25 13:24:00,
2013-04-25 09:29:00,44.6,33.6,30.22,WNW,283,4.6,4.6,65,0.00,CLR,,0.00,WeatherDisplay:10.37,2013-04-25 13:29:00,
2013-04-25 09:34:00,45.1,34.8,30.22,WNW,283,4.0,4.0,67,0.00,CLR,,0.00,WeatherDisplay:10.37,2013-04-25 13:34:00,
2013-04-25 09:39:00,45.7,33.4,30.22,West,270,8.0,8.0,62,0.00,CLR,,0.00,WeatherDisplay:10.37,2013-04-25 13:39:00,
2013-04-25 09:44:00,45.7,32.2,30.22,West,267,4.6,4.6,59,0.00,CLR,,0.00,WeatherDisplay:10.37,2013-04-25 13:44:00,
2013-04-25 09:49:00,45.8,32.7,30.22,North,8,3.5,3.5,60,0.00,CLR,,0.00,WeatherDisplay:10.37,2013-04-25 13:49:00,
2013-04-25 09:54:00,46.5,33.8,30.23,NNW,330,3.5,3.5,61,0.00,CLR,,0.00,WeatherDisplay:10.37,2013-04-25 13:54:00,
2013-04-25 09:59:00,46.3,31.9,30.23,WSW,252,5.8,5.8,57,0.00,CLR,,0.00,WeatherDisplay:10.37,2013-04-25 13:59:00,
2013-04-25 10:04:00,46.7,33.1,30.24,NW,304,4.0,4.0,59,0.00,CLR,,0.00,WeatherDisplay:10.37,2013-04-25 14:04:00,
2013-04-25 10:09:00,47.0,34.2,30.24,WNW,285,3.5,3.5,61,0.00,CLR,,0.00,WeatherDisplay:10.37,2013-04-25 14:09:00,
2013-04-25 10:14:00,47.1,32.6,30.24,WNW,292,3.5,3.5,57,0.00,CLR,,0.00,WeatherDisplay:10.37,2013-04-25 14:14:00,
2013-04-25 10:19:00,47.2,31.8,30.23,SW,232,4.6,4.6,55,0.00,CLR,,0.00,WeatherDisplay:10.37,2013-04-25 14:19:00,
2013-04-25 10:25:00,48.1,34.4,30.23,SE,124,1.1,1.1,59,0.00,CLR,,0.00,WeatherDisplay:10.37,2013-04-25 14:25:00,
2013-04-25 10:30:00,47.6,31.3,30.23,SSE,150,2.3,2.3,53,0.00,CLR,,0.00,WeatherDisplay:10.37,2013-04-25 14:30:00,
2013-04-25 10:35:00,47.2,32.7,30.23,West,280,3.5,3.5,57,0.00,CLR,,0.00,WeatherDisplay:10.37,2013-04-25 14:35:00,
2013-04-25 10:40:00,46.9,32.0,30.24,NNW,334,3.5,3.5,56,0.00,CLR,,0.00,WeatherDisplay:10.37,2013-04-25 14:40:00,
2013-04-25 10:45:00,46.4,32.0,30.23,West,266,3.5,3.5,57,0.00,CLR,,0.00,WeatherDisplay:10.37,2013-04-25 14:45:00,
2013-04-25 10:50:00,47.3,32.4,30.23,North,1,4.6,4.6,56,0.00,CLR,,0.00,WeatherDisplay:10.37,2013-04-25 14:50:00,
2013-04-25 10:55:00,47.9,32.5,30.23,West,270,9.2,9.2,55,0.00,CLR,,0.00,WeatherDisplay:10.37,2013-04-25 14:55:00,
2013-04-25 11:00:00,47.7,30.4,30.23,NNW,331,3.5,3.5,51,0.00,CLR,,0.00,WeatherDisplay:10.37,2013-04-25 15:00:00,
2013-04-25 11:05:00,47.9,32.0,30.23,WNW,287,1.1,1.1,54,0.00,CLR,,0.00,WeatherDisplay:10.37,2013-04-25 15:05:00,
2013-04-25 11:10:00,48.0,31.2,30.23,West,270,3.5,3.5,52,0.00,CLR,,0.00,WeatherDisplay:10.37,2013-04-25 15:10:00,
2013-04-25 11:15:00,48.5,32.1,30.23,WSW,252,1.1,0.0,53,0.00,CLR,,0.00,WeatherDisplay:10.37,2013-04-25 15:15:00,
2013-04-25 11:20:00,49.7,30.8,30.23,West,277,3.5,3.5,48,0.00,CLR,,0.00,WeatherDisplay:10.37,2013-04-25 15:20:00,
2013-04-25 11:25:00,49.4,30.0,30.23,WNW,297,4.6,4.6,47,0.00,CLR,,0.00,WeatherDisplay:10.37,2013-04-25 15:25:00,
2013-04-25 11:30:00,49.1,30.7,30.23,NNE,18,3.5,3.5,49,0.00,CLR,,0.00,WeatherDisplay:10.37,2013-04-25 15:30:00,
2013-04-25 11:35:00,49.5,32.1,30.23,West,281,3.5,3.5,51,0.00,CLR,,0.00,WeatherDisplay:10.37,2013-04-25 15:35:00,
2013-04-25 11:40:00,49.3,30.4,30.23,WSW,258,2.3,2.3,48,0.00,CLR,,0.00,WeatherDisplay:10.37,2013-04-25 15:40:00,
2013-04-25 11:45:00,49.3,31.9,30.23,NW,323,5.8,5.8,51,0.00,CLR,,0.00,WeatherDisplay:10.37,2013-04-25 15:45:00,
2013-04-25 11:50:00,48.8,31.0,30.23,West,271,1.1,1.1,50,0.00,CLR,,0.00,WeatherDisplay:10.37,2013-04-25 15:50:00,
2013-04-25 11:55:00,48.8,28.9,30.23,WSW,252,3.5,3.5,46,0.00,CLR,,0.00,WeatherDisplay:10.37,2013-04-25 15:55:00,
2013-04-25 12:00:00,48.6,28.2,30.23,ENE,62,2.3,2.3,45,0.00,CLR,,0.00,WeatherDisplay:10.37,2013-04-25 16:00:00,
2013-04-25 12:05:00,48.9,29.5,30.22,ENE,71,3.5,3.5,47,0.00,CLR,,0.00,WeatherDisplay:10.37,2013-04-25 16:05:00,
2013-04-25 12:10:00,49.2,30.3,30.22,NE,49,2.3,2.3,48,0.00,CLR,,0.00,WeatherDisplay:10.37,2013-04-25 16:10:00,
2013-04-25 12:15:00,49.1,30.7,30.22,NW,307,2.3,2.3,49,0.00,CLR,,0.00,WeatherDisplay:10.37,2013-04-25 16:15:00,
2013-04-25 12:20:00,49.1,29.2,30.22,WNW,293,3.5,3.5,46,0.00,CLR,,0.00,WeatherDisplay:10.37,2013-04-25 16:20:00,
2013-04-25 12:25:00,49.1,30.2,30.22,WSW,257,5.8,5.8,48,0.00,CLR,,0.00,WeatherDisplay:10.37,2013-04-25 16:25:00,
2013-04-25 12:30:00,49.2,30.8,30.22,West,269,2.3,2.3,49,0.00,CLR,,0.00,WeatherDisplay:10.37,2013-04-25 16:30:00,
2013-04-25 12:35:00,49.5,30.1,30.22,SSW,211,3.5,3.5,47,0.00,CLR,,0.00,WeatherDisplay:10.37,2013-04-25 16:35:00,
2013-04-25 12:40:00,50.1,30.6,30.22,NNW,328,2.3,2.3,47,0.00,CLR,,0.00,WeatherDisplay:10.37,2013-04-25 16:40:00,
2013-04-25 12:45:00,51.1,31.6,30.22,WSW,242,2.3,2.3,47,0.00,CLR,,0.00,WeatherDisplay:10.37,2013-04-25 16:45:00,
2013-04-25 12:50:00,51.7,28.7,30.22,ENE,61,1.1,1.1,41,0.00,CLR,,0.00,WeatherDisplay:10.37,2013-04-25 16:50:00,
2013-04-25 12:55:00,52.8,32.0,30.21,WSW,238,3.5,3.5,45,0.00,CLR,,0.00,WeatherDisplay:10.37,2013-04-25 16:55:00,
2013-04-25 13:00:00,52.2,29.8,30.22,WNW,287,3.5,3.5,42,0.00,CLR,,0.00,WeatherDisplay:10.37,2013-04-25 17:00:00,
2013-04-25 13:05:00,52.2,29.8,30.21,WNW,288,8.1,8.1,42,0.00,CLR,,0.00,WeatherDisplay:10.37,2013-04-25 17:05:00,
2013-04-25 13:10:00,52.1,30.3,30.21,SW,226,1.1,1.1,43,0.00,CLR,,0.00,WeatherDisplay:10.37,2013-04-25 17:10:00,
2013-04-25 13:15:00,53.3,33.6,30.20,WNW,297,6.9,6.9,47,0.00,CLR,,0.00,WeatherDisplay:10.37,2013-04-25 17:15:00,
2013-04-25 13:20:00,53.6,30.4,30.20,East,98,1.1,0.0,41,0.00,CLR,,0.00,WeatherDisplay:10.37,2013-04-25 17:20:00,
2013-04-25 13:25:00,53.5,30.4,30.20,West,269,1.1,1.1,41,0.00,CLR,,0.00,WeatherDisplay:10.37,2013-04-25 17:25:00,
2013-04-25 13:30:00,52.5,29.5,30.20,WSW,243,3.5,3.5,41,0.00,CLR,,0.00,WeatherDisplay:10.37,2013-04-25 17:30:00,
2013-04-25 13:35:00,52.3,29.3,30.20,ENE,65,3.0,3.0,41,0.00,CLR,,0.00,WeatherDisplay:10.37,2013-04-25 17:35:00,
2013-04-25 13:40:00,52.6,31.3,30.20,NW,305,5.8,5.8,44,0.00,CLR,,0.00,WeatherDisplay:10.37,2013-04-25 17:40:00,
2013-04-25 13:45:00,53.4,29.7,30.20,SW,229,3.5,3.5,40,0.00,CLR,,0.00,WeatherDisplay:10.37,2013-04-25 17:45:00,
2013-04-25 13:50:00,53.6,29.8,30.20,South,176,3.5,3.5,40,0.00,CLR,,0.00,WeatherDisplay:10.37,2013-04-25 17:50:00,
2013-04-25 13:55:00,53.6,29.2,30.20,ESE,108,3.5,3.5,39,0.00,CLR,,0.00,WeatherDisplay:10.37,2013-04-25 17:55:00,
2013-04-25 14:00:00,53.3,29.6,30.20,ESE,117,4.6,4.6,40,0.00,CLR,,0.00,WeatherDisplay:10.37,2013-04-25 18:00:00,
2013-04-25 14:05:00,53.5,29.1,30.20,West,260,3.5,3.5,39,0.00,CLR,,0.00,WeatherDisplay:10.37,2013-04-25 18:05:00,
2013-04-25 14:10:00,54.4,32.3,30.20,WNW,285,3.5,3.5,43,0.00,CLR,,0.00,WeatherDisplay:10.37,2013-04-25 18:10:00,
2013-04-25 14:15:00,54.9,30.4,30.20,WNW,289,4.6,4.6,39,0.00,CLR,,0.00,WeatherDisplay:10.37,2013-04-25 18:15:00,
2013-04-25 14:20:00,55.0,31.1,30.20,NW,304,3.5,3.5,40,0.00,CLR,,0.00,WeatherDisplay:10.37,2013-04-25 18:20:00,
2013-04-25 14:25:00,55.1,29.3,30.19,NNW,341,5.8,5.8,37,0.00,CLR,,0.00,WeatherDisplay:10.37,2013-04-25 18:25:00,
2013-04-25 14:30:00,54.4,30.6,30.19,WSW,249,3.5,3.5,40,0.00,CLR,,0.00,WeatherDisplay:10.37,2013-04-25 18:30:00,
2013-04-25 14:35:00,54.2,31.0,30.19,SSW,209,2.0,2.0,41,0.00,CLR,,0.00,WeatherDisplay:10.37,2013-04-25 18:35:00,
2013-04-25 14:40:00,54.6,30.1,30.19,ENE,78,4.6,4.6,39,0.00,CLR,,0.00,WeatherDisplay:10.37,2013-04-25 18:40:00,
2013-04-25 14:45:00,54.8,29.0,30.19,WSW,243,4.6,4.6,37,0.00,CLR,,0.00,WeatherDisplay:10.37,2013-04-25 18:45:00,
2013-04-25 14:50:00,54.3,27.9,30.18,WNW,285,4.6,4.6,36,0.00,CLR,,0.00,WeatherDisplay:10.37,2013-04-25 18:50:00,
2013-04-25 14:55:00,54.7,27.6,30.18,NNW,345,10.4,10.4,35,0.00,CLR,,0.00,WeatherDisplay:10.37,2013-04-25 18:55:00,
2013-04-25 15:00:00,54.6,28.8,30.18,NNW,330,2.0,2.0,37,0.00,CLR,,0.00,WeatherDisplay:10.37,2013-04-25 19:00:00,
2013-04-25 15:05:00,54.3,27.9,30.18,West,281,3.5,3.5,36,0.00,CLR,,0.00,WeatherDisplay:10.37,2013-04-25 19:05:00,
2013-04-25 15:10:00,55.0,29.2,30.19,South,184,3.5,3.5,37,0.00,CLR,,0.00,WeatherDisplay:10.37,2013-04-25 19:10:00,
2013-04-25 15:15:00,55.8,30.5,30.18,ESE,108,2.3,2.3,38,0.00,CLR,,0.00,WeatherDisplay:10.37,2013-04-25 19:15:00,
2013-04-25 15:20:00,55.7,27.7,30.18,SE,146,3.5,3.5,34,0.00,CLR,,0.00,WeatherDisplay:10.37,2013-04-25 19:20:00,
2013-04-25 15:25:00,56.0,27.3,30.18,SW,214,4.6,4.6,33,0.00,CLR,,0.00,WeatherDisplay:10.37,2013-04-25 19:25:00,
2013-04-25 15:30:00,55.9,27.9,30.18,NW,308,6.9,6.9,34,0.00,CLR,,0.00,WeatherDisplay:10.37,2013-04-25 19:30:00,
2013-04-25 15:35:00,56.3,29.0,30.18,SW,225,5.8,5.8,35,0.00,CLR,,0.00,WeatherDisplay:10.37,2013-04-25 19:35:00,
2013-04-25 15:40:00,56.4,30.4,30.17,NNW,336,1.1,1.1,37,0.00,CLR,,0.00,WeatherDisplay:10.37,2013-04-25 19:40:00,
2013-04-25 15:45:00,56.5,27.7,30.17,ESE,115,3.5,3.5,33,0.00,CLR,,0.00,WeatherDisplay:10.37,2013-04-25 19:45:00,
2013-04-25 15:50:00,56.3,26.8,30.17,ESE,112,3.5,3.5,32,0.00,CLR,,0.00,WeatherDisplay:10.37,2013-04-25 19:50:00,
2013-04-25 15:55:00,56.3,27.5,30.17,WSW,257,3.5,3.5,33,0.00,CLR,,0.00,WeatherDisplay:10.37,2013-04-25 19:55:00,
2013-04-25 16:01:00,56.0,30.7,30.17,SSW,207,5.8,5.8,38,0.00,CLR,,0.00,WeatherDisplay:10.37,2013-04-25 20:01:00,
2013-04-25 16:06:00,55.8,29.2,30.16,NW,307,6.0,6.0,36,0.00,CLR,,0.00,WeatherDisplay:10.37,2013-04-25 20:06:00,
2013-04-25 16:11:00,55.1,28.6,30.16,ESE,103,8.1,8.1,36,0.00,CLR,,0.00,WeatherDisplay:10.37,2013-04-25 20:11:00,
2013-04-25 16:16:00,55.8,27.8,30.16,SSW,194,5.0,5.0,34,0.00,CLR,,0.00,WeatherDisplay:10.37,2013-04-25 20:16:00,
2013-04-25 16:21:00,56.1,28.1,30.16,ESE,113,2.3,2.3,34,0.00,CLR,,0.00,WeatherDisplay:10.37,2013-04-25 20:21:00,
2013-04-25 16:26:00,56.5,29.8,30.16,East,98,3.5,3.5,36,0.00,CLR,,0.00,WeatherDisplay:10.37,2013-04-25 20:26:00,
2013-04-25 16:31:00,56.3,33.5,30.16,ENE,68,4.0,4.0,42,0.00,CLR,,0.00,WeatherDisplay:10.37,2013-04-25 20:31:00,
2013-04-25 16:36:00,56.2,33.4,30.16,West,269,3.5,3.5,42,0.00,CLR,,0.00,WeatherDisplay:10.37,2013-04-25 20:36:00,
2013-04-25 16:41:00,55.7,32.9,30.16,NW,323,3.5,3.5,42,0.00,CLR,,0.00,WeatherDisplay:10.37,2013-04-25 20:41:00,
2013-04-25 16:46:00,55.7,33.5,30.16,ESE,114,3.5,3.5,43,0.00,CLR,,0.00,WeatherDisplay:10.37,2013-04-25 20:46:00,
2013-04-25 16:51:00,55.9,33.7,30.16,East,100,3.5,3.5,43,0.00,CLR,,0.00,WeatherDisplay:10.37,2013-04-25 20:51:00,
2013-04-25 16:56:00,56.1,35.0,30.16,SE,124,1.0,1.0,45,0.00,CLR,,0.00,WeatherDisplay:10.37,2013-04-25 20:56:00,
2013-04-25 17:01:00,55.7,34.1,30.16,NW,309,2.3,2.3,44,0.00,CLR,,0.00,WeatherDisplay:10.37,2013-04-25 21:01:00,
2013-04-25 17:06:00,55.2,33.6,30.16,WSW,256,2.3,2.3,44,0.00,CLR,,0.00,WeatherDisplay:10.37,2013-04-25 21:06:00,
2013-04-25 17:11:00,54.8,34.4,30.17,West,270,2.3,2.3,46,0.00,CLR,,0.00,WeatherDisplay:10.37,2013-04-25 21:11:00,
2013-04-25 17:16:00,54.6,34.2,30.17,West,276,2.3,2.3,46,0.00,CLR,,0.00,WeatherDisplay:10.37,2013-04-25 21:16:00,
2013-04-25 17:21:00,54.4,34.6,30.17,NNW,336,3.5,3.5,47,0.00,CLR,,0.00,WeatherDisplay:10.37,2013-04-25 21:21:00,
2013-04-25 17:26:00,54.1,34.8,30.17,SSW,207,3.5,3.5,48,0.00,CLR,,0.00,WeatherDisplay:10.37,2013-04-25 21:26:00,
2013-04-25 17:31:00,54.1,33.8,30.17,WNW,285,4.6,4.6,46,0.00,CLR,,0.00,WeatherDisplay:10.37,2013-04-25 21:31:00,
2013-04-25 17:36:00,53.9,34.6,30.17,West,271,1.1,1.1,48,0.00,CLR,,0.00,WeatherDisplay:10.37,2013-04-25 21:36:00,
2013-04-25 17:41:00,53.7,35.0,30.17,NNW,328,1.1,0.0,49,0.00,CLR,,0.00,WeatherDisplay:10.37,2013-04-25 21:41:00,
2013-04-25 17:46:00,53.3,33.6,30.18,NNE,32,2.3,2.3,47,0.00,CLR,,0.00,WeatherDisplay:10.37,2013-04-25 21:46:00,
2013-04-25 17:51:00,53.0,33.8,30.18,NNW,333,3.5,3.5,48,0.00,CLR,,0.00,WeatherDisplay:10.37,2013-04-25 21:51:00,
2013-04-25 17:56:00,52.2,33.1,30.18,NE,41,2.3,2.3,48,0.00,CLR,,0.00,WeatherDisplay:10.37,2013-04-25 21:56:00,
2013-04-25 18:01:00,51.2,32.2,30.18,NNW,333,3.5,3.5,48,0.00,CLR,,0.00,WeatherDisplay:10.37,2013-04-25 22:01:00,
2013-04-25 18:06:00,50.5,31.5,30.18,ENE,61,3.5,3.5,48,0.00,CLR,,0.00,WeatherDisplay:10.37,2013-04-25 22:06:00,
2013-04-25 18:11:00,50.0,33.1,30.18,ESE,115,3.0,3.0,52,0.00,CLR,,0.00,WeatherDisplay:10.37,2013-04-25 22:11:00,
2013-04-25 18:16:00,49.7,32.3,30.18,NNE,32,3.5,3.5,51,0.00,CLR,,0.00,WeatherDisplay:10.37,2013-04-25 22:16:00,
2013-04-25 18:21:00,49.5,32.6,30.18,NE,46,3.0,3.0,52,0.00,CLR,,0.00,WeatherDisplay:10.37,2013-04-25 22:21:00,
2013-04-25 18:26:00,49.4,32.0,30.18,West,267,2.3,2.3,51,0.00,CLR,,0.00,WeatherDisplay:10.37,2013-04-25 22:26:00,
2013-04-25 18:31:00,49.2,31.3,30.18,North,11,7.0,7.0,50,0.00,CLR,,0.00,WeatherDisplay:10.37,2013-04-25 22:31:00,
2013-04-25 18:36:00,49.0,32.1,30.18,NE,46,3.5,3.5,52,0.00,CLR,,0.00,WeatherDisplay:10.37,2013-04-25 22:36:00,
2013-04-25 18:41:00,48.9,31.5,30.18,NE,46,3.5,3.5,51,0.00,CLR,,0.00,WeatherDisplay:10.37,2013-04-25 22:41:00,
2013-04-25 18:46:00,48.7,31.4,30.19,ENE,66,3.5,3.5,51,0.00,CLR,,0.00,WeatherDisplay:10.37,2013-04-25 22:46:00,
2013-04-25 18:51:00,48.5,32.1,30.19,NNE,33,3.5,3.5,53,0.00,CLR,,0.00,WeatherDisplay:10.37,2013-04-25 22:51:00,
2013-04-25 18:56:00,48.2,31.4,30.19,ENE,63,0.0,0.0,52,0.00,CLR,,0.00,WeatherDisplay:10.37,2013-04-25 22:56:00,
2013-04-25 19:01:00,48.0,31.7,30.19,NNW,332,1.0,1.0,53,0.00,CLR,,0.00,WeatherDisplay:10.37,2013-04-25 23:01:00,
2013-04-25 19:06:00,47.9,31.6,30.19,ENE,69,2.3,2.3,53,0.00,CLR,,0.00,WeatherDisplay:10.37,2013-04-25 23:06:00,
2013-04-25 19:11:00,47.6,31.3,30.19,NNW,330,2.3,2.3,53,0.00,CLR,,0.00,WeatherDisplay:10.37,2013-04-25 23:11:00,
2013-04-25 19:16:00,47.4,32.5,30.20,WSW,246,1.1,0.0,56,0.00,CLR,,0.00,WeatherDisplay:10.37,2013-04-25 23:16:00,
2013-04-25 19:21:00,47.2,32.3,30.20,NW,321,1.1,1.1,56,0.00,CLR,,0.00,WeatherDisplay:10.37,2013-04-25 23:21:00,
2013-04-25 19:26:00,47.1,32.2,30.20,West,267,1.1,1.1,56,0.00,CLR,,0.00,WeatherDisplay:10.37,2013-04-25 23:26:00,
2013-04-25 19:31:00,46.9,33.3,30.20,West,267,0.0,0.0,59,0.00,CLR,,0.00,WeatherDisplay:10.37,2013-04-25 23:31:00,
2013-04-25 19:36:00,46.8,33.2,30.21,SW,236,1.1,1.1,59,0.00,CLR,,0.00,WeatherDisplay:10.37,2013-04-25 23:36:00,
2013-04-25 19:41:00,46.7,34.0,30.22,NNE,25,0.0,0.0,61,0.00,CLR,,0.00,WeatherDisplay:10.37,2013-04-25 23:41:00,
2013-04-25 19:46:00,46.5,31.6,30.22,WNW,302,3.5,3.5,56,0.00,CLR,,0.00,WeatherDisplay:10.37,2013-04-25 23:46:00,
2013-04-25 19:51:00,46.3,31.9,30.22,NW,323,2.0,2.0,57,0.00,CLR,,0.00,WeatherDisplay:10.37,2013-04-25 23:51:00,
2013-04-25 19:56:00,46.2,32.2,30.23,WSW,245,0.0,0.0,58,0.00,CLR,,0.00,WeatherDisplay:10.37,2013-04-25 23:56:00,
2013-04-25 20:02:00,46.0,32.9,30.23,West,277,1.1,0.0,60,0.00,CLR,,0.00,WeatherDisplay:10.37,2013-04-26 00:02:00,
2013-04-25 20:07:00,45.8,31.4,30.23,West,259,2.3,2.3,57,0.00,CLR,,0.00,WeatherDisplay:10.37,2013-04-26 00:07:00,
2013-04-25 20:12:00,45.7,32.6,30.24,West,278,1.1,1.1,60,0.00,CLR,,0.00,WeatherDisplay:10.37,2013-04-26 00:12:00,
2013-04-25 20:17:00,45.5,32.0,30.24,West,267,2.3,2.3,59,0.00,CLR,,0.00,WeatherDisplay:10.37,2013-04-26 00:17:00,
2013-04-25 20:22:00,45.5,32.0,30.24,West,276,0.0,0.0,59,0.00,CLR,,0.00,WeatherDisplay:10.37,2013-04-26 00:22:00,
2013-04-25 20:27:00,45.4,31.5,30.25,NW,325,2.3,2.3,58,0.00,CLR,,0.00,WeatherDisplay:10.37,2013-04-26 00:27:00,
2013-04-25 20:32:00,45.3,31.4,30.25,West,278,3.5,3.5,58,0.00,CLR,,0.00,WeatherDisplay:10.37,2013-04-26 00:32:00,
2013-04-25 20:37:00,45.4,31.0,30.25,NW,314,3.5,3.5,57,0.00,CLR,,0.00,WeatherDisplay:10.37,2013-04-26 00:37:00,
2013-04-25 20:42:00,45.3,32.2,30.25,NW,315,0.0,0.0,60,0.00,CLR,,0.00,WeatherDisplay:10.37,2013-04-26 00:42:00,
2013-04-25 20:47:00,45.2,32.9,30.26,WNW,297,1.0,0.0,62,0.00,CLR,,0.00,WeatherDisplay:10.37,2013-04-26 00:47:00,
2013-04-25 20:52:00,45.0,31.5,30.26,WSW,246,0.0,0.0,59,0.00,CLR,,0.00,WeatherDisplay:10.37,2013-04-26 00:52:00,
2013-04-25 20:57:00,44.8,32.2,30.26,WSW,248,0.0,0.0,61,0.00,CLR,,0.00,WeatherDisplay:10.37,2013-04-26 00:57:00,
2013-04-25 21:02:00,44.7,32.1,30.26,WSW,248,0.0,0.0,61,0.00,CLR,,0.00,WeatherDisplay:10.37,2013-04-26 01:02:00,
2013-04-25 21:07:00,44.4,32.2,30.26,WSW,248,0.0,0.0,62,0.00,CLR,,0.00,WeatherDisplay:10.37,2013-04-26 01:07:00,
2013-04-25 21:12:00,44.3,32.1,30.26,WSW,248,0.0,0.0,62,0.00,CLR,,0.00,WeatherDisplay:10.37,2013-04-26 01:12:00,
2013-04-25 21:17:00,44.3,32.5,30.27,WSW,248,0.0,0.0,63,0.00,CLR,,0.00,WeatherDisplay:10.37,2013-04-26 01:17:00,
2013-04-25 21:22:00,44.2,31.6,30.27,WSW,248,0.0,0.0,61,0.00,CLR,,0.00,WeatherDisplay:10.37,2013-04-26 01:22:00,
2013-04-25 21:27:00,44.3,32.9,30.27,WSW,254,0.0,0.0,64,0.00,CLR,,0.00,WeatherDisplay:10.37,2013-04-26 01:27:00,
2013-04-25 21:33:00,44.4,32.6,30.28,WSW,254,0.0,0.0,63,0.00,CLR,,0.00,WeatherDisplay:10.37,2013-04-26 01:33:00,
2013-04-25 21:38:00,44.3,32.5,30.28,WSW,255,0.0,0.0,63,0.00,CLR,,0.00,WeatherDisplay:10.37,2013-04-26 01:38:00,
2013-04-25 21:43:00,44.3,32.5,30.28,WSW,255,0.0,0.0,63,0.00,CLR,,0.00,WeatherDisplay:10.37,2013-04-26 01:43:00,
2013-04-25 21:48:00,44.2,32.4,30.28,WSW,255,0.0,0.0,63,0.00,CLR,,0.00,WeatherDisplay:10.37,2013-04-26 01:48:00,
2013-04-25 21:53:00,44.2,32.8,30.29,NNW,337,5.0,5.0,64,0.00,CLR,,0.00,WeatherDisplay:10.37,2013-04-26 01:53:00,
2013-04-25 21:58:00,44.6,33.6,30.29,NW,324,8.1,8.1,65,0.00,CLR,,0.00,WeatherDisplay:10.37,2013-04-26 01:58:00,
2013-04-25 22:03:00,44.5,34.2,30.30,WNW,297,5.8,5.8,67,0.00,CLR,,0.00,WeatherDisplay:10.37,2013-04-26 02:03:00,
2013-04-25 22:08:00,44.3,34.8,30.30,WSW,244,3.5,3.5,69,0.00,CLR,,0.00,WeatherDisplay:10.37,2013-04-26 02:08:00,
2013-04-25 22:13:00,44.0,35.2,30.30,WNW,290,3.5,3.5,71,0.00,CLR,,0.00,WeatherDisplay:10.37,2013-04-26 02:13:00,
2013-04-25 22:18:00,43.6,35.2,30.30,North,8,1.0,1.0,72,0.00,CLR,,0.00,WeatherDisplay:10.37,2013-04-26 02:18:00,
2013-04-25 22:23:00,43.3,35.9,30.30,NNW,332,2.3,2.3,75,0.00,CLR,,0.00,WeatherDisplay:10.37,2013-04-26 02:23:00,
2013-04-25 22:28:00,42.9,36.2,30.31,ESE,107,1.1,1.1,77,0.00,CLR,,0.00,WeatherDisplay:10.37,2013-04-26 02:28:00,
2013-04-25 22:33:00,42.8,37.1,30.30,WNW,295,2.3,2.3,80,0.00,CLR,,0.00,WeatherDisplay:10.37,2013-04-26 02:33:00,
2013-04-25 22:38:00,42.6,37.2,30.30,WSW,252,0.0,0.0,81,0.00,CLR,,0.00,WeatherDisplay:10.37,2013-04-26 02:38:00,
2013-04-25 22:43:00,42.4,37.3,30.30,WSW,252,1.1,0.0,82,0.00,CLR,,0.00,WeatherDisplay:10.37,2013-04-26 02:43:00,
2013-04-25 22:48:00,42.3,37.5,30.30,WSW,252,0.0,0.0,83,0.00,CLR,,0.00,WeatherDisplay:10.37,2013-04-26 02:48:00,
2013-04-25 22:53:00,42.2,37.7,30.30,WSW,252,0.0,0.0,84,0.00,CLR,,0.00,WeatherDisplay:10.37,2013-04-26 02:53:00,
2013-04-25 22:58:00,42.0,37.8,30.31,WSW,252,0.0,0.0,85,0.00,CLR,,0.00,WeatherDisplay:10.37,2013-04-26 02:58:00,
2013-04-25 23:03:00,41.9,38.0,30.31,WSW,252,0.0,0.0,86,0.00,CLR,,0.00,WeatherDisplay:10.37,2013-04-26 03:03:00,
2013-04-25 23:08:00,41.8,38.2,30.31,WSW,252,0.0,0.0,87,0.00,CLR,,0.00,WeatherDisplay:10.37,2013-04-26 03:08:00,
2013-04-25 23:13:00,41.8,38.2,30.32,WSW,252,0.0,0.0,87,0.01,RA,,0.01,WeatherDisplay:10.37,2013-04-26 03:13:00,
2013-04-25 23:18:00,41.7,38.1,30.32,WSW,252,0.0,0.0,87,0.02,RA,,0.02,WeatherDisplay:10.37,2013-04-26 03:18:00,
2013-04-25 23:23:00,41.7,38.4,30.32,WSW,252,0.0,0.0,88,0.02,RA,,0.02,WeatherDisplay:10.37,2013-04-26 03:23:00,
2013-04-25 23:28:00,41.7,38.4,30.32,WSW,252,0.0,0.0,88,0.03,RA,,0.03,WeatherDisplay:10.37,2013-04-26 03:28:00,
2013-04-25 23:33:00,41.6,38.3,30.32,WSW,252,0.0,0.0,88,0.03,RA,,0.03,WeatherDisplay:10.37,2013-04-26 03:33:00,
2013-04-25 23:38:00,41.5,38.5,30.32,WSW,252,0.0,0.0,89,0.03,CLR,,0.04,WeatherDisplay:10.37,2013-04-26 03:38:00,
2013-04-25 23:43:00,41.5,38.5,30.32,WSW,252,0.0,0.0,89,0.04,RA,,0.04,WeatherDisplay:10.37,2013-04-26 03:43:00,
2013-04-25 23:48:00,41.5,38.5,30.32,WSW,252,0.0,0.0,89,0.04,RA,,0.04,WeatherDisplay:10.37,2013-04-26 03:48:00,
2013-04-25 23:53:00,41.5,38.5,30.32,WSW,252,0.0,0.0,89,0.04,CLR,,0.04,WeatherDisplay:10.37,2013-04-26 03:53:00,
2013-04-25 23:58:00,41.5,38.2,30.32,WSW,252,0.0,0.0,88,0.04,CLR,,0.04,WeatherDisplay:10.37,2013-04-26 03:58:00,